sensor_id;sensor_type;location;lat;lon;timestamp;temperature;humidity
7455;HTU21D;3769;51.208;4.454;2023-05-10T00:04:07;13.5;98.3
7455;HTU21D;3769;51.208;4.454;2023-05-10T00:09:07;13.5;98.3
7455;HTU21D;3769;51.208;4.454;2023-05-10T00:14:07;13.5;98.3
7455;HTU21D;3769;51.208;4.454;2023-05-10T00:19:07;13.5;98.3
7455;HTU21D;3769;51.208;4.454;2023-05-10T00:24:07;13.4;98.3
7455;HTU21D;3769;51.208;4.454;2023-05-10T00:29:07;13.4;98.3
7455;HTU21D;3769;51.208;4.454;2023-05-10T00:34:07;13.3;98.2
7455;HTU21D;3769;51.208;4.454;2023-05-10T00:39:07;13.2;98.2
7455;HTU21D;3769;51.208;4.454;2023-05-10T00:44:07;13.3;98.2
7455;HTU21D;3769;51.208;4.454;2023-05-10T00:49:07;13.3;98.3
7455;HTU21D;3769;51.208;4.454;2023-05-10T00:54:07;13.3;98.2
7455;HTU21D;3769;51.208;4.454;2023-05-10T00:59:08;13.3;98.2
7455;HTU21D;3769;51.208;4.454;2023-05-10T01:04:08;13.2;98.2
7455;HTU21D;3769;51.208;4.454;2023-05-10T01:09:07;13.2;98.2
7455;HTU21D;3769;51.208;4.454;2023-05-10T01:14:07;13.2;98.2
7455;HTU21D;3769;51.208;4.454;2023-05-10T01:19:12;13.3;98.2
7455;HTU21D;3769;51.208;4.454;2023-05-10T01:24:20;13.3;98.2
7455;HTU21D;3769;51.208;4.454;2023-05-10T01:29:27;13.3;98.3
7455;HTU21D;3769;51.208;4.454;2023-05-10T01:34:09;13.3;98.2
7455;HTU21D;3769;51.208;4.454;2023-05-10T01:39:16;13.3;98.2
7455;HTU21D;3769;51.208;4.454;2023-05-10T01:44:10;13.3;98.2
7455;HTU21D;3769;51.208;4.454;2023-05-10T01:49:08;13.3;98.2
7455;HTU21D;3769;51.208;4.454;2023-05-10T01:54:08;13.3;98.2
7455;HTU21D;3769;51.208;4.454;2023-05-10T01:59:09;13.3;98.2
7455;HTU21D;3769;51.208;4.454;2023-05-10T02:04:07;13.2;98.2
7455;HTU21D;3769;51.208;4.454;2023-05-10T02:09:08;13.1;98.2
7455;HTU21D;3769;51.208;4.454;2023-05-10T02:14:08;13.2;98.2
7455;HTU21D;3769;51.208;4.454;2023-05-10T02:19:07;13.2;98.2
7455;HTU21D;3769;51.208;4.454;2023-05-10T02:24:07;13.2;98.2
7455;HTU21D;3769;51.208;4.454;2023-05-10T02:29:07;13.2;98.2
7455;HTU21D;3769;51.208;4.454;2023-05-10T02:34:08;13.3;98.3
7455;HTU21D;3769;51.208;4.454;2023-05-10T02:39:07;13.3;98.2
7455;HTU21D;3769;51.208;4.454;2023-05-10T02:44:07;13.3;98.2
7455;HTU21D;3769;51.208;4.454;2023-05-10T02:49:07;13.2;98.2
7455;HTU21D;3769;51.208;4.454;2023-05-10T02:54:10;13.3;98.2
7455;HTU21D;3769;51.208;4.454;2023-05-10T02:59:08;13.2;98.2
7455;HTU21D;3769;51.208;4.454;2023-05-10T03:04:07;13.2;98.2
7455;HTU21D;3769;51.208;4.454;2023-05-10T03:09:07;13.3;98.2
7455;HTU21D;3769;51.208;4.454;2023-05-10T03:14:10;13;98.2
7455;HTU21D;3769;51.208;4.454;2023-05-10T03:19:17;13;98.2
7455;HTU21D;3769;51.208;4.454;2023-05-10T03:24:08;12.9;98.2
7455;HTU21D;3769;51.208;4.454;2023-05-10T03:29:07;13;98.2
7455;HTU21D;3769;51.208;4.454;2023-05-10T03:34:07;12.8;98.2
7455;HTU21D;3769;51.208;4.454;2023-05-10T03:39:07;13;98.2
7455;HTU21D;3769;51.208;4.454;2023-05-10T03:44:07;13;98.2
7455;HTU21D;3769;51.208;4.454;2023-05-10T03:49:07;12.8;98.2
7455;HTU21D;3769;51.208;4.454;2023-05-10T03:54:07;13;98.2
7455;HTU21D;3769;51.208;4.454;2023-05-10T03:59:08;12.9;98.2
7455;HTU21D;3769;51.208;4.454;2023-05-10T04:04:07;12.9;98.2
7455;HTU21D;3769;51.208;4.454;2023-05-10T04:09:07;12.8;98.2
7455;HTU21D;3769;51.208;4.454;2023-05-10T04:14:08;13;98.2
7455;HTU21D;3769;51.208;4.454;2023-05-10T04:19:07;12.9;98.2
7455;HTU21D;3769;51.208;4.454;2023-05-10T04:24:07;12.9;98.2
7455;HTU21D;3769;51.208;4.454;2023-05-10T04:29:07;13.1;98.2
7455;HTU21D;3769;51.208;4.454;2023-05-10T04:34:08;12.9;98.2
7455;HTU21D;3769;51.208;4.454;2023-05-10T04:39:07;12.9;98.2
7455;HTU21D;3769;51.208;4.454;2023-05-10T04:44:07;13;98.2
7455;HTU21D;3769;51.208;4.454;2023-05-10T04:49:07;12.9;98.2
7455;HTU21D;3769;51.208;4.454;2023-05-10T04:54:07;12.9;98.2
7455;HTU21D;3769;51.208;4.454;2023-05-10T04:59:07;12.9;98.2
7455;HTU21D;3769;51.208;4.454;2023-05-10T05:04:07;12.9;98.2
7455;HTU21D;3769;51.208;4.454;2023-05-10T05:09:07;13;98.2
7455;HTU21D;3769;51.208;4.454;2023-05-10T05:14:08;13;98.2
7455;HTU21D;3769;51.208;4.454;2023-05-10T05:19:08;13.1;98.2
7455;HTU21D;3769;51.208;4.454;2023-05-10T05:24:07;13;98.2
7455;HTU21D;3769;51.208;4.454;2023-05-10T05:29:07;12.9;98.2
7455;HTU21D;3769;51.208;4.454;2023-05-10T05:34:07;12.7;98.2
7455;HTU21D;3769;51.208;4.454;2023-05-10T05:39:07;12.8;98.2
7455;HTU21D;3769;51.208;4.454;2023-05-10T05:44:08;13;98.2
7455;HTU21D;3769;51.208;4.454;2023-05-10T05:49:07;13;98.2
7455;HTU21D;3769;51.208;4.454;2023-05-10T05:54:07;12.9;98.2
7455;HTU21D;3769;51.208;4.454;2023-05-10T05:59:07;13;98.2
7455;HTU21D;3769;51.208;4.454;2023-05-10T06:04:07;13.3;98.2
7455;HTU21D;3769;51.208;4.454;2023-05-10T06:09:08;13.3;98.2
7455;HTU21D;3769;51.208;4.454;2023-05-10T06:14:08;13.4;98.3
7455;HTU21D;3769;51.208;4.454;2023-05-10T06:19:08;13.6;98.3
7455;HTU21D;3769;51.208;4.454;2023-05-10T06:24:08;13.6;98.3
7455;HTU21D;3769;51.208;4.454;2023-05-10T06:29:08;13.4;98.3
7455;HTU21D;3769;51.208;4.454;2023-05-10T06:34:07;13.5;98.3
7455;HTU21D;3769;51.208;4.454;2023-05-10T06:39:07;13.4;98.3
7455;HTU21D;3769;51.208;4.454;2023-05-10T06:44:07;13.5;98.3
7455;HTU21D;3769;51.208;4.454;2023-05-10T06:49:08;13.5;98.3
7455;HTU21D;3769;51.208;4.454;2023-05-10T06:54:08;13.5;98.3
7455;HTU21D;3769;51.208;4.454;2023-05-10T06:59:08;13.4;98.3
7455;HTU21D;3769;51.208;4.454;2023-05-10T07:04:08;13.5;98.3
7455;HTU21D;3769;51.208;4.454;2023-05-10T07:09:08;13.5;98.3
7455;HTU21D;3769;51.208;4.454;2023-05-10T07:14:07;13.7;98.3
7455;HTU21D;3769;51.208;4.454;2023-05-10T07:19:07;13.7;98.3
7455;HTU21D;3769;51.208;4.454;2023-05-10T07:24:08;13.9;98.3
7455;HTU21D;3769;51.208;4.454;2023-05-10T07:29:08;13.9;98.3
7455;HTU21D;3769;51.208;4.454;2023-05-10T07:34:08;13.7;98.3
7455;HTU21D;3769;51.208;4.454;2023-05-10T07:39:08;13.7;98.3
7455;HTU21D;3769;51.208;4.454;2023-05-10T07:44:08;13.6;98.3
7455;HTU21D;3769;51.208;4.454;2023-05-10T07:49:08;13.7;98.3
7455;HTU21D;3769;51.208;4.454;2023-05-10T07:54:08;14.1;98.4
7455;HTU21D;3769;51.208;4.454;2023-05-10T07:59:08;14.3;98.4
7455;HTU21D;3769;51.208;4.454;2023-05-10T08:04:08;14.1;98.4
7455;HTU21D;3769;51.208;4.454;2023-05-10T08:09:08;14.2;98.4
7455;HTU21D;3769;51.208;4.454;2023-05-10T08:14:08;14.4;98.4
7455;HTU21D;3769;51.208;4.454;2023-05-10T08:19:08;14.5;98.4
7455;HTU21D;3769;51.208;4.454;2023-05-10T08:24:08;14.5;98.4
7455;HTU21D;3769;51.208;4.454;2023-05-10T08:29:08;14.6;98.4
7455;HTU21D;3769;51.208;4.454;2023-05-10T08:34:08;14.5;98.4
7455;HTU21D;3769;51.208;4.454;2023-05-10T08:39:08;14.9;98.5
7455;HTU21D;3769;51.208;4.454;2023-05-10T08:44:08;15.1;98.5
7455;HTU21D;3769;51.208;4.454;2023-05-10T08:49:08;15.2;98.5
7455;HTU21D;3769;51.208;4.454;2023-05-10T08:54:08;15.2;98.5
7455;HTU21D;3769;51.208;4.454;2023-05-10T08:59:08;15.1;98.5
7455;HTU21D;3769;51.208;4.454;2023-05-10T09:04:08;15.1;98.5
7455;HTU21D;3769;51.208;4.454;2023-05-10T09:09:08;14.8;98.5
7455;HTU21D;3769;51.208;4.454;2023-05-10T09:14:08;14.6;98.4
7455;HTU21D;3769;51.208;4.454;2023-05-10T09:19:08;14.5;98.4
7455;HTU21D;3769;51.208;4.454;2023-05-10T09:24:08;14.8;98.5
7455;HTU21D;3769;51.208;4.454;2023-05-10T09:29:08;14.8;98.5
7455;HTU21D;3769;51.208;4.454;2023-05-10T09:34:08;14.9;98.5
7455;HTU21D;3769;51.208;4.454;2023-05-10T09:39:08;15;98.5
7455;HTU21D;3769;51.208;4.454;2023-05-10T09:44:08;14.9;98.5
7455;HTU21D;3769;51.208;4.454;2023-05-10T09:49:07;14.7;98.5
7455;HTU21D;3769;51.208;4.454;2023-05-10T09:54:15;14.7;98.5
7455;HTU21D;3769;51.208;4.454;2023-05-10T09:59:10;15;98.5
7455;HTU21D;3769;51.208;4.454;2023-05-10T10:04:08;15.1;98.5
7455;HTU21D;3769;51.208;4.454;2023-05-10T10:09:08;15.3;98.5
7455;HTU21D;3769;51.208;4.454;2023-05-10T10:14:08;15.8;98.6
7455;HTU21D;3769;51.208;4.454;2023-05-10T10:19:08;16;98.7
7455;HTU21D;3769;51.208;4.454;2023-05-10T10:24:08;15.4;98.6
7455;HTU21D;3769;51.208;4.454;2023-05-10T10:29:21;15.3;98.6
7455;HTU21D;3769;51.208;4.454;2023-05-10T10:34:09;15.2;98.5
7455;HTU21D;3769;51.208;4.454;2023-05-10T10:39:08;15.3;98.5
7455;HTU21D;3769;51.208;4.454;2023-05-10T10:44:25;15.7;98.6
7455;HTU21D;3769;51.208;4.454;2023-05-10T10:49:08;16.1;98.7
7455;HTU21D;3769;51.208;4.454;2023-05-10T10:54:08;15.8;98.6
7455;HTU21D;3769;51.208;4.454;2023-05-10T10:59:08;15.4;98.6
7455;HTU21D;3769;51.208;4.454;2023-05-10T11:04:16;15.2;98.5
7455;HTU21D;3769;51.208;4.454;2023-05-10T11:09:08;15.1;98.5
7455;HTU21D;3769;51.208;4.454;2023-05-10T11:14:08;14.9;98.5
7455;HTU21D;3769;51.208;4.454;2023-05-10T11:19:09;15.1;98.5
7455;HTU21D;3769;51.208;4.454;2023-05-10T11:24:12;15;98.5
7455;HTU21D;3769;51.208;4.454;2023-05-10T11:29:08;14.7;98.4
7455;HTU21D;3769;51.208;4.454;2023-05-10T11:34:08;14.5;98.4
7455;HTU21D;3769;51.208;4.454;2023-05-10T11:39:08;14.3;98.4
7455;HTU21D;3769;51.208;4.454;2023-05-10T11:44:08;14.2;98.4
7455;HTU21D;3769;51.208;4.454;2023-05-10T11:49:08;14.3;98.4
7455;HTU21D;3769;51.208;4.454;2023-05-10T11:54:08;14.2;98.4
7455;HTU21D;3769;51.208;4.454;2023-05-10T11:59:08;14.1;98.4
7455;HTU21D;3769;51.208;4.454;2023-05-10T12:04:08;14.2;98.4
7455;HTU21D;3769;51.208;4.454;2023-05-10T12:09:08;14.2;98.4
7455;HTU21D;3769;51.208;4.454;2023-05-10T12:14:08;14.1;98.4
7455;HTU21D;3769;51.208;4.454;2023-05-10T12:19:08;14.2;98.4
7455;HTU21D;3769;51.208;4.454;2023-05-10T12:24:08;14.4;98.4
7455;HTU21D;3769;51.208;4.454;2023-05-10T12:29:16;14.5;98.4
7455;HTU21D;3769;51.208;4.454;2023-05-10T12:34:08;14.6;98.4
7455;HTU21D;3769;51.208;4.454;2023-05-10T12:39:08;14.8;98.5
7455;HTU21D;3769;51.208;4.454;2023-05-10T12:44:08;14.8;98.5
7455;HTU21D;3769;51.208;4.454;2023-05-10T12:49:08;14.8;98.5
7455;HTU21D;3769;51.208;4.454;2023-05-10T12:54:08;15.1;98.5
7455;HTU21D;3769;51.208;4.454;2023-05-10T12:59:08;15.1;98.5
7455;HTU21D;3769;51.208;4.454;2023-05-10T13:04:08;14.9;98.5
7455;HTU21D;3769;51.208;4.454;2023-05-10T13:09:08;14.9;98.5
7455;HTU21D;3769;51.208;4.454;2023-05-10T13:14:08;14.8;98.5
7455;HTU21D;3769;51.208;4.454;2023-05-10T13:19:08;14.7;98.5
7455;HTU21D;3769;51.208;4.454;2023-05-10T13:24:08;14.6;98.4
7455;HTU21D;3769;51.208;4.454;2023-05-10T13:29:08;14.5;98.4
7455;HTU21D;3769;51.208;4.454;2023-05-10T13:34:08;14.7;98.4
7455;HTU21D;3769;51.208;4.454;2023-05-10T13:39:08;14.6;98.4
7455;HTU21D;3769;51.208;4.454;2023-05-10T13:44:08;14.7;98.5
7455;HTU21D;3769;51.208;4.454;2023-05-10T13:49:08;14.7;98.5
7455;HTU21D;3769;51.208;4.454;2023-05-10T13:54:08;14.6;98.4
7455;HTU21D;3769;51.208;4.454;2023-05-10T13:59:08;14.4;98.4
7455;HTU21D;3769;51.208;4.454;2023-05-10T14:04:08;14;98.3
7455;HTU21D;3769;51.208;4.454;2023-05-10T14:09:08;13.9;98.3
7455;HTU21D;3769;51.208;4.454;2023-05-10T14:14:08;13.8;98.3
7455;HTU21D;3769;51.208;4.454;2023-05-10T14:19:08;13.7;98.3
7455;HTU21D;3769;51.208;4.454;2023-05-10T14:24:08;13.8;98.3
7455;HTU21D;3769;51.208;4.454;2023-05-10T14:29:08;14;98.3
7455;HTU21D;3769;51.208;4.454;2023-05-10T14:34:08;14.3;98.4
7455;HTU21D;3769;51.208;4.454;2023-05-10T14:39:08;14.5;98.4
7455;HTU21D;3769;51.208;4.454;2023-05-10T14:44:08;14.8;98.5
7455;HTU21D;3769;51.208;4.454;2023-05-10T14:49:08;15.3;98.5
7455;HTU21D;3769;51.208;4.454;2023-05-10T14:54:08;15.4;98.6
7455;HTU21D;3769;51.208;4.454;2023-05-10T14:59:08;15.1;98.5
7455;HTU21D;3769;51.208;4.454;2023-05-10T15:04:08;14.7;98.5
7455;HTU21D;3769;51.208;4.454;2023-05-10T15:09:08;13.9;98.3
7455;HTU21D;3769;51.208;4.454;2023-05-10T15:14:08;13.7;98.3
7455;HTU21D;3769;51.208;4.454;2023-05-10T15:19:08;13.3;98.2
7455;HTU21D;3769;51.208;4.454;2023-05-10T15:24:08;13.1;98.2
7455;HTU21D;3769;51.208;4.454;2023-05-10T15:29:08;13.2;98.2
7455;HTU21D;3769;51.208;4.454;2023-05-10T15:34:08;13.2;98.2
7455;HTU21D;3769;51.208;4.454;2023-05-10T15:39:08;13.3;98.2
7455;HTU21D;3769;51.208;4.454;2023-05-10T15:44:08;13.3;98.2
7455;HTU21D;3769;51.208;4.454;2023-05-10T15:49:08;13.4;98.3
7455;HTU21D;3769;51.208;4.454;2023-05-10T15:54:08;13.5;98.3
7455;HTU21D;3769;51.208;4.454;2023-05-10T15:59:08;13.6;98.3
7455;HTU21D;3769;51.208;4.454;2023-05-10T16:04:08;13.6;98.3
7455;HTU21D;3769;51.208;4.454;2023-05-10T16:09:08;13.6;98.3
7455;HTU21D;3769;51.208;4.454;2023-05-10T16:14:08;13.5;98.3
7455;HTU21D;3769;51.208;4.454;2023-05-10T16:19:08;13.6;98.3
7455;HTU21D;3769;51.208;4.454;2023-05-10T16:24:08;13.6;98.3
7455;HTU21D;3769;51.208;4.454;2023-05-10T16:29:08;13.8;98.3
7455;HTU21D;3769;51.208;4.454;2023-05-10T16:34:08;13.6;98.3
7455;HTU21D;3769;51.208;4.454;2023-05-10T16:39:08;13.6;98.3
7455;HTU21D;3769;51.208;4.454;2023-05-10T16:44:08;13.7;98.3
7455;HTU21D;3769;51.208;4.454;2023-05-10T16:49:08;13.7;98.3
7455;HTU21D;3769;51.208;4.454;2023-05-10T16:54:08;13.7;98.3
7455;HTU21D;3769;51.208;4.454;2023-05-10T16:59:08;13.7;98.3
7455;HTU21D;3769;51.208;4.454;2023-05-10T17:04:08;13.7;98.3
7455;HTU21D;3769;51.208;4.454;2023-05-10T17:09:08;13.7;98.3
7455;HTU21D;3769;51.208;4.454;2023-05-10T17:14:08;13.9;98.3
7455;HTU21D;3769;51.208;4.454;2023-05-10T17:19:08;13.8;98.3
7455;HTU21D;3769;51.208;4.454;2023-05-10T17:24:08;13.8;98.3
7455;HTU21D;3769;51.208;4.454;2023-05-10T17:29:08;13.9;98.3
7455;HTU21D;3769;51.208;4.454;2023-05-10T17:34:08;13.9;98.3
7455;HTU21D;3769;51.208;4.454;2023-05-10T17:39:08;13.9;98.3
7455;HTU21D;3769;51.208;4.454;2023-05-10T17:44:08;13.7;98.3
7455;HTU21D;3769;51.208;4.454;2023-05-10T17:49:08;13.9;98.3
7455;HTU21D;3769;51.208;4.454;2023-05-10T17:54:08;13.7;98.3
7455;HTU21D;3769;51.208;4.454;2023-05-10T17:59:08;14;98.3
7455;HTU21D;3769;51.208;4.454;2023-05-10T18:04:08;14;98.3
7455;HTU21D;3769;51.208;4.454;2023-05-10T18:09:08;13.7;98.3
7455;HTU21D;3769;51.208;4.454;2023-05-10T18:14:08;13.8;98.3
7455;HTU21D;3769;51.208;4.454;2023-05-10T18:19:08;13.9;98.3
7455;HTU21D;3769;51.208;4.454;2023-05-10T18:24:08;13.8;98.3
7455;HTU21D;3769;51.208;4.454;2023-05-10T18:29:08;13.8;98.3
7455;HTU21D;3769;51.208;4.454;2023-05-10T18:34:08;13.7;98.3
7455;HTU21D;3769;51.208;4.454;2023-05-10T18:39:08;13.6;98.3
7455;HTU21D;3769;51.208;4.454;2023-05-10T18:44:08;13.6;98.3
7455;HTU21D;3769;51.208;4.454;2023-05-10T18:49:08;13.8;98.3
7455;HTU21D;3769;51.208;4.454;2023-05-10T18:54:08;13.8;98.3
7455;HTU21D;3769;51.208;4.454;2023-05-10T18:59:08;13.9;98.3
7455;HTU21D;3769;51.208;4.454;2023-05-10T19:04:08;13.8;98.3
7455;HTU21D;3769;51.208;4.454;2023-05-10T19:09:08;13.6;98.3
7455;HTU21D;3769;51.208;4.454;2023-05-10T19:14:08;13.6;98.3
7455;HTU21D;3769;51.208;4.454;2023-05-10T19:19:08;13.7;98.3
7455;HTU21D;3769;51.208;4.454;2023-05-10T19:24:08;13.8;98.3
7455;HTU21D;3769;51.208;4.454;2023-05-10T19:29:08;13.8;98.3
7455;HTU21D;3769;51.208;4.454;2023-05-10T19:34:08;13.9;98.3
7455;HTU21D;3769;51.208;4.454;2023-05-10T19:39:08;14;98.4
7455;HTU21D;3769;51.208;4.454;2023-05-10T19:44:08;14;98.3
7455;HTU21D;3769;51.208;4.454;2023-05-10T19:49:08;13.9;98.3
7455;HTU21D;3769;51.208;4.454;2023-05-10T19:54:08;14;98.3
7455;HTU21D;3769;51.208;4.454;2023-05-10T19:59:08;13.9;98.3
7455;HTU21D;3769;51.208;4.454;2023-05-10T20:04:08;14;98.3
7455;HTU21D;3769;51.208;4.454;2023-05-10T20:09:08;13.8;98.3
7455;HTU21D;3769;51.208;4.454;2023-05-10T20:14:08;13.8;98.3
7455;HTU21D;3769;51.208;4.454;2023-05-10T20:19:08;13.8;98.3
7455;HTU21D;3769;51.208;4.454;2023-05-10T20:24:08;13.9;98.3
7455;HTU21D;3769;51.208;4.454;2023-05-10T20:29:08;14;98.3
7455;HTU21D;3769;51.208;4.454;2023-05-10T20:34:08;13.9;98.3
7455;HTU21D;3769;51.208;4.454;2023-05-10T20:39:08;13.8;98.3
7455;HTU21D;3769;51.208;4.454;2023-05-10T20:44:08;13.8;98.3
7455;HTU21D;3769;51.208;4.454;2023-05-10T20:49:08;13.9;98.3
7455;HTU21D;3769;51.208;4.454;2023-05-10T20:54:08;13.8;98.3
7455;HTU21D;3769;51.208;4.454;2023-05-10T20:59:09;13.8;98.3
7455;HTU21D;3769;51.208;4.454;2023-05-10T21:04:08;13.7;98.3
7455;HTU21D;3769;51.208;4.454;2023-05-10T21:09:08;13.7;98.3
7455;HTU21D;3769;51.208;4.454;2023-05-10T21:14:08;13.8;98.3
7455;HTU21D;3769;51.208;4.454;2023-05-10T21:19:08;13.8;98.3
7455;HTU21D;3769;51.208;4.454;2023-05-10T21:24:08;13.7;98.3
7455;HTU21D;3769;51.208;4.454;2023-05-10T21:29:08;13.5;98.3
7455;HTU21D;3769;51.208;4.454;2023-05-10T21:34:08;13.5;98.3
7455;HTU21D;3769;51.208;4.454;2023-05-10T21:39:08;13.5;98.3
7455;HTU21D;3769;51.208;4.454;2023-05-10T21:44:08;13.5;98.3
7455;HTU21D;3769;51.208;4.454;2023-05-10T21:49:08;13.4;98.3
7455;HTU21D;3769;51.208;4.454;2023-05-10T21:54:08;13.4;98.3
7455;HTU21D;3769;51.208;4.454;2023-05-10T21:59:08;13.3;98.3
7455;HTU21D;3769;51.208;4.454;2023-05-10T22:04:08;13.5;98.3
7455;HTU21D;3769;51.208;4.454;2023-05-10T22:09:08;13.6;98.3
7455;HTU21D;3769;51.208;4.454;2023-05-10T22:14:08;13.5;98.3
7455;HTU21D;3769;51.208;4.454;2023-05-10T22:19:08;13.5;98.3
7455;HTU21D;3769;51.208;4.454;2023-05-10T22:24:08;13.5;98.3
7455;HTU21D;3769;51.208;4.454;2023-05-10T22:29:08;13.5;98.3
7455;HTU21D;3769;51.208;4.454;2023-05-10T22:34:08;13.5;98.3
7455;HTU21D;3769;51.208;4.454;2023-05-10T22:39:08;13.5;98.3
7455;HTU21D;3769;51.208;4.454;2023-05-10T22:44:08;13.4;98.3
7455;HTU21D;3769;51.208;4.454;2023-05-10T22:49:08;13.3;98.2
7455;HTU21D;3769;51.208;4.454;2023-05-10T22:54:08;13.4;98.3
7455;HTU21D;3769;51.208;4.454;2023-05-10T22:59:08;13.4;98.3
7455;HTU21D;3769;51.208;4.454;2023-05-10T23:04:08;13.3;98.2
7455;HTU21D;3769;51.208;4.454;2023-05-10T23:09:08;13.4;98.3
7455;HTU21D;3769;51.208;4.454;2023-05-10T23:14:08;13.3;98.2
7455;HTU21D;3769;51.208;4.454;2023-05-10T23:19:08;13.3;98.2
7455;HTU21D;3769;51.208;4.454;2023-05-10T23:24:08;13.3;98.2
7455;HTU21D;3769;51.208;4.454;2023-05-10T23:29:08;13.3;98.2
7455;HTU21D;3769;51.208;4.454;2023-05-10T23:34:08;13.4;98.3
7455;HTU21D;3769;51.208;4.454;2023-05-10T23:39:08;13.4;98.3
7455;HTU21D;3769;51.208;4.454;2023-05-10T23:44:08;13.3;98.2
7455;HTU21D;3769;51.208;4.454;2023-05-10T23:49:08;13.4;98.3
7455;HTU21D;3769;51.208;4.454;2023-05-10T23:54:08;13.3;98.2
7455;HTU21D;3769;51.208;4.454;2023-05-10T23:59:08;13.3;98.2
